Search METAR Data

METAR Data for ENGM:

ENGM 241320Z 01010KT 340V040 9999 VCSH FEW040CB BKN047 07/M03 Q1007 TEMPO SHRAGS